Time;durP1;ratioP1;P1;durP2;ratioP2;P2;SDS_P1;SDS_P2;PMS_P1;PMS_P2;Temp;Humidity;BMP_temperature;BMP_pressure;BME280_temperature;BME280_humidity;BME280_pressure;Samples;Min_cycle;Max_cycle;Signal;HPM_P1;HPM_P2
2023/02/10 00:01:10;;;;;;;5.93;5.00;;;20.60;30.90;;;;;;5064702;28;20063;-58
2023/02/10 00:03:36;;;;;;;8.25;5.35;;;20.60;30.90;;;;;;5059259;28;20047;-58
2023/02/10 00:06:04;;;;;;;6.88;5.20;;;20.50;30.90;;;;;;5063801;28;20032;-54
2023/02/10 00:08:30;;;;;;;5.63;4.72;;;20.50;30.90;;;;;;5042982;28;21588;-58
2023/02/10 00:10:58;;;;;;;4.93;4.38;;;20.50;30.90;;;;;;5057396;28;20060;-57
2023/02/10 00:13:24;;;;;;;6.40;5.05;;;20.50;30.90;;;;;;5055541;28;20017;-59
2023/02/10 00:15:51;;;;;;;6.47;4.70;;;20.50;30.90;;;;;;5061573;28;20119;-58
2023/02/10 00:18:17;;;;;;;6.10;4.78;;;20.50;30.90;;;;;;5060874;28;20036;-56
2023/02/10 00:20:43;;;;;;;6.15;4.70;;;20.50;30.90;;;;;;5063810;28;20024;-58
2023/02/10 00:23:09;;;;;;;7.00;4.72;;;20.50;30.90;;;;;;5059965;28;20470;-57
2023/02/10 00:25:35;;;;;;;4.95;4.15;;;20.50;30.90;;;;;;5057935;28;20398;-58
2023/02/10 00:28:02;;;;;;;5.85;4.30;;;20.50;30.90;;;;;;5059852;28;20020;-56
2023/02/10 00:30:28;;;;;;;5.30;4.60;;;20.50;30.90;;;;;;5042196;28;20020;-58
2023/02/10 00:32:54;;;;;;;4.82;4.15;;;20.50;30.90;;;;;;5059355;28;20044;-57
2023/02/10 00:35:20;;;;;;;5.90;4.70;;;20.50;30.90;;;;;;5043708;28;20428;-57
2023/02/10 00:37:46;;;;;;;5.35;4.20;;;20.40;30.90;;;;;;5060708;28;20048;-58
2023/02/10 00:40:13;;;;;;;5.22;3.83;;;20.40;30.90;;;;;;5043181;28;20115;-58
2023/02/10 00:42:38;;;;;;;5.45;4.78;;;20.40;30.90;;;;;;5060985;28;20025;-58
2023/02/10 00:45:05;;;;;;;5.70;4.45;;;20.40;30.90;;;;;;5058311;28;20570;-59
2023/02/10 00:47:31;;;;;;;5.13;4.20;;;20.40;31.00;;;;;;5063397;28;20736;-58
2023/02/10 00:49:56;;;;;;;5.72;4.68;;;20.40;31.00;;;;;;5045528;28;20039;-56
2023/02/10 00:52:23;;;;;;;6.18;4.10;;;20.40;31.00;;;;;;5040532;28;20025;-57
2023/02/10 00:54:49;;;;;;;5.47;4.10;;;20.40;31.00;;;;;;5061318;28;20021;-57
2023/02/10 00:57:15;;;;;;;5.25;4.20;;;20.40;31.00;;;;;;5059810;28;20048;-56
2023/02/10 00:59:41;;;;;;;4.63;3.92;;;20.40;31.00;;;;;;5033311;28;20029;-55
2023/02/10 01:02:07;;;;;;;3.90;3.40;;;20.40;31.10;;;;;;5042154;28;20085;-57
2023/02/10 01:04:33;;;;;;;5.35;3.85;;;20.40;31.10;;;;;;5046527;28;20463;-57
2023/02/10 01:06:59;;;;;;;4.88;3.78;;;20.40;31.10;;;;;;5059224;28;20024;-57
2023/02/10 01:09:25;;;;;;;4.20;3.50;;;20.30;31.10;;;;;;5059979;28;20021;-56
2023/02/10 01:11:51;;;;;;;5.75;4.10;;;20.40;31.20;;;;;;5059212;28;20166;-58
2023/02/10 01:14:16;;;;;;;4.47;3.72;;;20.30;31.20;;;;;;5059265;28;20055;-58
2023/02/10 01:16:43;;;;;;;4.63;3.78;;;20.30;31.10;;;;;;5037995;28;20024;-57
2023/02/10 01:19:09;;;;;;;5.13;3.97;;;20.30;31.10;;;;;;5058550;28;20328;-58
2023/02/10 01:21:36;;;;;;;4.22;3.83;;;20.30;31.10;;;;;;5058707;28;20345;-56
2023/02/10 01:24:05;;;;;;;4.22;3.70;;;20.30;31.10;;;;;;5044485;28;20108;-57
2023/02/10 01:26:32;;;;;;;4.53;3.67;;;20.30;31.10;;;;;;5058792;28;20025;-58
2023/02/10 01:28:58;;;;;;;5.88;3.70;;;20.30;31.10;;;;;;5058343;28;20025;-57
2023/02/10 01:31:24;;;;;;;4.22;3.83;;;20.30;31.10;;;;;;5039816;28;20017;-57
2023/02/10 01:33:52;;;;;;;5.55;4.15;;;20.30;31.10;;;;;;5058802;28;22037;-58
2023/02/10 01:36:20;;;;;;;3.63;3.17;;;20.30;31.10;;;;;;5058300;28;20451;-57
2023/02/10 01:38:47;;;;;;;4.22;3.50;;;20.30;31.10;;;;;;5026320;28;20027;-58
2023/02/10 01:41:15;;;;;;;4.13;3.50;;;20.20;31.10;;;;;;5062314;28;20059;-57
2023/02/10 01:44:20;;;;;;;4.07;3.35;;;20.30;31.20;;;;;;5037183;28;20043;-57
2023/02/10 01:46:47;;;;;;;4.03;3.58;;;20.20;31.10;;;;;;4960332;28;20105;-59
2023/02/10 01:49:17;;;;;;;4.35;3.47;;;20.20;31.10;;;;;;5042927;28;20364;-57
2023/02/10 01:51:50;;;;;;;4.07;3.45;;;20.20;31.10;;;;;;5042826;28;20051;-57
2023/02/10 01:54:21;;;;;;;3.50;3.00;;;20.20;31.10;;;;;;5061603;28;20086;-57
2023/02/10 01:56:48;;;;;;;4.80;3.42;;;20.20;31.10;;;;;;5054711;28;20040;-55
2023/02/10 01:59:15;;;;;;;3.60;3.17;;;20.20;31.10;;;;;;5036816;28;20048;-58
2023/02/10 02:01:41;;;;;;;5.28;3.15;;;20.20;31.10;;;;;;5041062;28;20032;-56
2023/02/10 02:04:07;;;;;;;4.10;3.30;;;20.10;31.00;;;;;;5043827;28;20029;-57
2023/02/10 02:06:34;;;;;;;4.18;3.53;;;20.20;31.00;;;;;;5057777;28;20036;-56
2023/02/10 02:09:01;;;;;;;3.55;3.15;;;20.20;31.00;;;;;;5061578;28;20028;-57
2023/02/10 02:11:42;;;;;;;4.28;3.53;;;20.20;31.00;;;;;;5057061;28;20028;-57
2023/02/10 02:14:26;;;;;;;4.22;3.15;;;20.20;31.10;;;;;;5032632;28;20622;-57
2023/02/10 02:17:07;;;;;;;3.42;3.13;;;20.10;31.00;;;;;;5023277;28;20021;-58
2023/02/10 02:20:40;;;;;;;3.47;3.08;;;20.10;31.00;;;;;;5039200;28;20055;-59
2023/02/10 02:22:44;;;;;;;3.97;3.25;;;20.10;31.00;;;;;;5055275;28;20025;-57
2023/02/10 02:25:37;;;;;;;3.97;3.20;;;20.10;31.00;;;;;;5056566;28;20347;-53
2023/02/10 02:28:34;;;;;;;3.83;3.30;;;20.10;31.00;;;;;;5041610;28;20124;-57
2023/02/10 02:31:12;;;;;;;3.80;3.25;;;20.10;31.00;;;;;;5059999;28;20024;-55
2023/02/10 02:33:52;;;;;;;3.88;3.20;;;20.10;31.00;;;;;;5037976;28;20146;-58
2023/02/10 02:36:33;;;;;;;3.35;2.90;;;20.10;31.00;;;;;;5059121;28;20024;-57
2023/02/10 02:39:02;;;;;;;3.95;3.10;;;20.10;31.00;;;;;;5037348;28;20020;-58
2023/02/10 02:41:29;;;;;;;3.40;3.00;;;20.00;31.00;;;;;;5059075;28;20029;-56
2023/02/10 02:43:58;;;;;;;3.72;3.20;;;20.10;31.10;;;;;;5060808;28;20029;-56
2023/02/10 02:47:03;;;;;;;4.28;3.20;;;20.00;31.00;;;;;;5043945;28;20043;-57
2023/02/10 02:49:49;;;;;;;3.95;3.30;;;20.00;31.00;;;;;;5031580;28;20032;-54
2023/02/10 02:52:23;;;;;;;3.40;3.03;;;20.00;31.00;;;;;;5044633;28;20123;-57
2023/02/10 02:55:02;;;;;;;3.65;3.13;;;20.00;31.00;;;;;;5048127;28;20391;-57
2023/02/10 02:57:48;;;;;;;3.67;3.30;;;20.00;31.00;;;;;;5044783;28;20081;-58
2023/02/10 03:00:19;;;;;;;4.15;3.13;;;20.00;31.10;;;;;;5061302;28;20463;-55
2023/02/10 03:02:47;;;;;;;3.30;3.00;;;20.00;31.00;;;;;;5062979;28;20108;-58
2023/02/10 03:05:21;;;;;;;5.88;3.15;;;20.00;31.00;;;;;;5035061;28;20028;-57
2023/02/10 03:07:47;;;;;;;;;;;20.00;31.00;;;;;;5042559;28;20371;-58
2023/02/10 03:10:16;;;;;;;4.22;3.55;;;20.00;31.00;;;;;;5062376;28;20309;-57
2023/02/10 03:12:42;;;;;;;3.72;3.00;;;20.00;31.00;;;;;;5061472;28;20040;-59
2023/02/10 03:15:08;;;;;;;3.35;3.05;;;19.90;30.90;;;;;;5045116;28;20492;-58
2023/02/10 03:17:34;;;;;;;3.72;3.20;;;19.90;30.90;;;;;;5063073;28;20458;-57
2023/02/10 03:20:00;;;;;;;3.83;2.90;;;19.90;30.90;;;;;;5060842;28;20021;-55
2023/02/10 03:22:26;;;;;;;3.75;2.97;;;19.90;30.90;;;;;;5042200;28;20471;-58
2023/02/10 03:24:52;;;;;;;2.83;2.50;;;19.90;30.90;;;;;;5063565;28;20040;-59
2023/02/10 03:27:17;;;;;;;3.75;3.38;;;19.90;30.90;;;;;;5060066;28;20112;-57
2023/02/10 03:29:43;;;;;;;3.90;3.00;;;19.90;30.90;;;;;;5062009;28;20097;-58
2023/02/10 03:32:09;;;;;;;3.53;2.90;;;19.90;30.90;;;;;;5061351;28;20574;-58
2023/02/10 03:34:35;;;;;;;3.30;3.00;;;19.90;30.80;;;;;;5059768;28;20025;-54
2023/02/10 03:37:01;;;;;;;4.22;3.20;;;19.90;30.80;;;;;;5064798;28;20479;-56
2023/02/10 03:39:27;;;;;;;3.53;3.08;;;19.90;30.80;;;;;;5062955;28;20039;-57
2023/02/10 03:41:53;;;;;;;4.03;3.10;;;19.90;30.80;;;;;;5063575;28;20036;-60
2023/02/10 03:44:19;;;;;;;3.80;3.22;;;19.90;30.80;;;;;;5061567;28;20055;-57
2023/02/10 03:46:45;;;;;;;3.13;2.75;;;19.90;30.80;;;;;;5062846;28;20025;-57
2023/02/10 03:49:11;;;;;;;3.50;3.13;;;19.90;30.80;;;;;;5040661;28;20029;-56
2023/02/10 03:51:37;;;;;;;4.13;3.15;;;19.90;30.80;;;;;;5065707;28;20035;-57
2023/02/10 03:54:03;;;;;;;3.55;3.00;;;19.90;30.80;;;;;;5064300;28;20124;-59
2023/02/10 03:56:29;;;;;;;4.47;3.05;;;19.80;30.70;;;;;;5058227;28;20021;-57
2023/02/10 03:58:55;;;;;;;3.60;3.08;;;19.90;30.80;;;;;;5061277;28;20515;-57
2023/02/10 04:01:21;;;;;;;3.63;3.10;;;19.80;30.70;;;;;;5061949;28;20024;-57
2023/02/10 04:03:47;;;;;;;3.30;3.00;;;19.80;30.70;;;;;;5060579;28;20032;-58
2023/02/10 04:06:13;;;;;;;4.60;3.05;;;19.80;30.70;;;;;;5059355;28;20060;-56
2023/02/10 04:08:39;;;;;;;3.67;2.92;;;19.80;30.60;;;;;;5060391;28;20444;-55
2023/02/10 04:11:07;;;;;;;4.30;3.22;;;19.80;30.60;;;;;;5045113;28;20058;-58
2023/02/10 04:13:33;;;;;;;4.00;3.30;;;19.80;30.60;;;;;;5057323;28;20055;-58
2023/02/10 04:16:08;;;;;;;3.47;3.05;;;19.80;30.70;;;;;;5056343;28;20472;-56
2023/02/10 04:18:35;;;;;;;3.72;3.15;;;19.80;30.70;;;;;;5061318;28;20024;-58
2023/02/10 04:21:02;;;;;;;3.42;3.13;;;19.80;30.70;;;;;;5059644;28;20070;-58
2023/02/10 04:23:29;;;;;;;3.90;3.13;;;19.80;30.70;;;;;;5044094;28;20452;-55
2023/02/10 04:25:55;;;;;;;3.35;2.95;;;19.80;30.70;;;;;;5059358;28;20028;-57
2023/02/10 04:28:21;;;;;;;3.90;3.05;;;19.80;30.70;;;;;;5065248;28;20040;-57
2023/02/10 04:30:53;;;;;;;4.30;3.58;;;19.80;30.70;;;;;;5041443;28;20107;-58
2023/02/10 04:33:19;;;;;;;4.63;3.60;;;19.80;30.60;;;;;;5065650;28;20274;-58
2023/02/10 04:35:47;;;;;;;3.88;2.85;;;19.70;30.60;;;;;;5060400;28;20451;-56
2023/02/10 04:38:14;;;;;;;4.60;3.58;;;19.70;30.60;;;;;;5040179;28;20092;-56
2023/02/10 04:40:41;;;;;;;4.13;3.38;;;19.70;30.60;;;;;;5058398;28;20036;-57
2023/02/10 04:43:07;;;;;;;4.03;3.35;;;19.80;30.70;;;;;;5050137;28;20063;-57
2023/02/10 04:45:33;;;;;;;3.60;3.10;;;19.80;31.00;;;;;;5055767;28;20044;-58
2023/02/10 04:47:59;;;;;;;4.55;3.25;;;19.70;30.60;;;;;;5065113;28;20024;-56
2023/02/10 04:50:25;;;;;;;3.95;3.50;;;19.70;30.60;;;;;;5060182;28;20042;-58
2023/02/10 04:52:51;;;;;;;4.10;3.53;;;19.70;30.60;;;;;;5060981;28;20070;-56
2023/02/10 04:55:17;;;;;;;4.55;3.60;;;19.70;30.60;;;;;;5060865;28;20048;-55
2023/02/10 04:57:43;;;;;;;4.50;3.50;;;19.70;30.60;;;;;;5059366;28;20444;-57
2023/02/10 05:00:09;;;;;;;4.75;3.70;;;19.70;30.60;;;;;;5038788;28;20041;-57
2023/02/10 05:02:35;;;;;;;3.80;3.40;;;19.70;30.60;;;;;;5064006;28;20035;-58
2023/02/10 05:05:01;;;;;;;4.22;3.63;;;19.70;30.60;;;;;;5058670;28;20044;-58
2023/02/10 05:07:27;;;;;;;4.07;3.45;;;19.70;30.60;;;;;;5058512;28;20044;-54
2023/02/10 05:09:53;;;;;;;3.75;3.35;;;19.60;30.60;;;;;;5059245;28;20021;-56
2023/02/10 05:12:19;;;;;;;4.85;3.50;;;19.70;30.60;;;;;;5045658;28;20512;-57
2023/02/10 05:14:44;;;;;;;4.25;3.83;;;19.60;30.60;;;;;;5040835;28;20041;-56
2023/02/10 05:17:10;;;;;;;4.32;3.75;;;19.60;30.60;;;;;;5063876;28;20348;-57
2023/02/10 05:19:36;;;;;;;3.90;3.50;;;19.60;30.60;;;;;;5063386;28;20047;-58
2023/02/10 05:22:02;;;;;;;4.18;3.53;;;19.60;30.60;;;;;;5061376;28;20029;-56
2023/02/10 05:24:28;;;;;;;3.67;3.15;;;19.60;30.60;;;;;;5058439;28;20028;-57
2023/02/10 05:26:54;;;;;;;4.72;3.65;;;19.60;30.60;;;;;;5042515;28;20325;-57
2023/02/10 05:29:20;;;;;;;4.28;3.70;;;19.60;30.60;;;;;;5058876;28;20021;-58
2023/02/10 05:31:45;;;;;;;4.32;3.45;;;19.60;30.60;;;;;;5057713;28;20094;-58
2023/02/10 05:34:11;;;;;;;3.78;3.15;;;19.60;30.60;;;;;;5060143;28;20029;-56
2023/02/10 05:36:37;;;;;;;4.03;3.00;;;19.60;30.60;;;;;;5058498;28;20021;-58
2023/02/10 05:41:47;;;;;;;3.72;3.30;;;19.60;30.60;;;;;;5061490;28;20111;-56
2023/02/10 05:44:13;;;;;;;3.50;3.03;;;19.60;30.60;;;;;;5061501;28;20859;-58
2023/02/10 05:46:39;;;;;;;4.55;3.53;;;19.60;30.60;;;;;;5061789;28;20368;-58
2023/02/10 05:49:06;;;;;;;4.15;3.70;;;19.60;30.60;;;;;;5062590;28;20444;-58
2023/02/10 05:51:32;;;;;;;4.30;3.65;;;19.60;30.60;;;;;;5057344;28;20466;-58
2023/02/10 05:53:58;;;;;;;3.58;3.28;;;19.50;30.50;;;;;;5064606;28;20131;-57
2023/02/10 05:56:23;;;;;;;4.22;3.40;;;19.50;30.50;;;;;;5058176;28;20020;-57
2023/02/10 05:58:49;;;;;;;4.68;3.60;;;19.50;30.50;;;;;;5062028;28;20043;-58
2023/02/10 06:01:16;;;;;;;4.03;3.63;;;19.50;30.50;;;;;;5061029;28;20020;-55
2023/02/10 06:03:42;;;;;;;4.85;3.90;;;19.50;30.60;;;;;;5058073;28;20032;-56
2023/02/10 06:06:08;;;;;;;5.13;4.35;;;19.50;30.60;;;;;;5064338;28;20040;-57
2023/02/10 06:08:34;;;;;;;4.10;3.50;;;19.50;30.60;;;;;;5056228;28;20037;-56
2023/02/10 06:10:59;;;;;;;4.90;4.00;;;19.50;30.60;;;;;;5062932;28;20095;-59
2023/02/10 06:13:25;;;;;;;5.53;3.92;;;19.50;30.70;;;;;;5054026;28;20399;-57
2023/02/10 06:15:51;;;;;;;5.00;4.50;;;19.50;30.70;;;;;;5061029;28;20082;-58
2023/02/10 06:18:17;;;;;;;6.15;4.78;;;19.50;30.70;;;;;;5037374;28;20158;-58
2023/02/10 06:20:45;;;;;;;6.18;4.95;;;19.50;30.70;;;;;;5058492;28;20033;-58
2023/02/10 06:23:12;;;;;;;6.45;4.90;;;19.50;30.80;;;;;;5055844;28;20071;-56
2023/02/10 06:25:38;;;;;;;7.47;5.32;;;19.40;30.70;;;;;;5055879;28;20040;-59
2023/02/10 06:28:04;;;;;;;6.55;5.22;;;19.50;30.70;;;;;;5061255;28;20071;-55
2023/02/10 06:30:30;;;;;;;7.88;5.80;;;19.40;30.70;;;;;;5062028;28;20033;-58
2023/02/10 06:32:56;;;;;;;6.53;4.95;;;19.40;30.70;;;;;;5045121;28;20110;-56
2023/02/10 06:35:22;;;;;;;6.25;5.18;;;19.50;30.80;;;;;;5060321;28;20029;-56
2023/02/10 06:37:48;;;;;;;8.60;5.82;;;19.40;30.70;;;;;;5062698;28;20033;-58
2023/02/10 06:40:14;;;;;;;8.68;5.55;;;19.40;30.80;;;;;;5058772;28;20033;-58
2023/02/10 06:42:40;;;;;;;7.93;6.15;;;19.40;30.70;;;;;;5064714;28;20085;-58
2023/02/10 06:45:08;;;;;;;7.05;5.65;;;19.40;30.80;;;;;;5059302;28;20032;-57
2023/02/10 06:47:35;;;;;;;8.07;6.30;;;19.40;30.80;;;;;;5067130;28;20035;-57
2023/02/10 06:50:02;;;;;;;7.10;5.63;;;19.40;30.80;;;;;;5062678;28;20020;-57
2023/02/10 06:52:28;;;;;;;8.93;6.40;;;19.40;30.80;;;;;;5063377;28;20361;-58
2023/02/10 06:54:54;;;;;;;8.63;6.35;;;19.40;30.80;;;;;;5063293;28;20017;-58
2023/02/10 06:57:19;;;;;;;9.73;6.97;;;19.40;30.80;;;;;;5061617;28;20440;-60
2023/02/10 06:59:45;;;;;;;11.35;6.63;;;19.40;30.80;;;;;;5028593;28;20093;-56
2023/02/10 07:02:12;;;;;;;10.00;7.03;;;19.40;30.80;;;;;;5065673;28;20095;-58
2023/02/10 07:04:38;;;;;;;9.25;6.75;;;19.40;30.80;;;;;;5060977;28;20056;-57
2023/02/10 07:07:04;;;;;;;11.07;7.30;;;19.40;30.90;;;;;;5062879;28;20120;-59
2023/02/10 07:09:30;;;;;;;8.07;6.70;;;19.30;30.90;;;;;;5064106;28;20028;-58
2023/02/10 07:11:57;;;;;;;10.82;7.68;;;19.40;30.90;;;;;;5062782;28;20028;-58
2023/02/10 07:14:24;;;;;;;9.52;7.65;;;19.40;30.90;;;;;;5063526;28;20056;-57
2023/02/10 07:16:49;;;;;;;9.93;7.65;;;19.30;30.90;;;;;;5057771;28;20025;-57
2023/02/10 07:19:15;;;;;;;9.88;8.00;;;19.30;30.90;;;;;;5058302;28;20036;-59
2023/02/10 07:21:41;;;;;;;10.23;8.18;;;19.30;30.90;;;;;;5064078;28;20046;-58
2023/02/10 07:24:07;;;;;;;9.85;7.90;;;19.30;31.00;;;;;;5061478;28;20025;-57
2023/02/10 07:26:33;;;;;;;10.70;8.70;;;19.30;31.00;;;;;;5057378;28;20433;-59
2023/02/10 07:28:59;;;;;;;9.68;8.45;;;19.30;31.00;;;;;;5038388;28;20025;-57
2023/02/10 07:31:25;;;;;;;9.93;8.10;;;19.30;31.00;;;;;;5043479;28;20547;-60
2023/02/10 07:33:51;;;;;;;10.55;8.40;;;19.30;31.00;;;;;;5058404;28;20110;-59
2023/02/10 07:36:17;;;;;;;10.77;8.27;;;19.30;31.00;;;;;;5056699;28;20171;-58
2023/02/10 07:38:42;;;;;;;12.52;8.65;;;19.30;31.00;;;;;;5057320;28;20056;-56
2023/02/10 07:41:08;;;;;;;12.80;8.40;;;19.30;31.00;;;;;;5054211;28;20025;-55
2023/02/10 07:43:34;;;;;;;11.65;8.57;;;19.30;31.00;;;;;;5055000;28;20040;-54
2023/02/10 07:46:06;;;;;;;9.55;7.65;;;19.30;31.10;;;;;;5041073;28;20036;-57
2023/02/10 07:48:32;;;;;;;9.77;7.65;;;19.30;31.20;;;;;;5056779;28;20045;-55
2023/02/10 07:50:57;;;;;;;9.98;7.32;;;19.30;31.30;;;;;;5054827;28;20024;-55
2023/02/10 07:53:23;;;;;;;9.25;6.60;;;19.30;31.40;;;;;;5036679;28;20045;-59
2023/02/10 07:55:49;;;;;;;9.02;7.03;;;19.30;31.80;;;;;;5053506;28;20028;-56
2023/02/10 07:58:15;;;;;;;7.35;6.03;;;19.30;31.60;;;;;;5055572;28;20029;-56
2023/02/10 08:00:41;;;;;;;9.20;6.00;;;19.30;31.70;;;;;;5054625;28;20115;-57
2023/02/10 08:03:08;;;;;;;11.00;6.03;;;19.40;31.90;;;;;;5055728;28;20029;-57
2023/02/10 08:05:35;;;;;;;10.68;5.38;;;19.40;31.90;;;;;;5058880;28;20103;-57
2023/02/10 08:08:01;;;;;;;7.85;5.53;;;19.50;31.90;;;;;;5053981;28;20021;-58
2023/02/10 08:10:27;;;;;;;10.77;5.68;;;19.50;31.90;;;;;;5055000;28;20023;-55
2023/02/10 08:12:53;;;;;;;8.13;6.13;;;19.60;31.80;;;;;;5056193;28;20446;-55
2023/02/10 08:15:21;;;;;;;7.25;5.57;;;19.60;31.80;;;;;;5057823;28;20049;-58
2023/02/10 08:17:47;;;;;;;7.53;5.93;;;19.70;31.70;;;;;;5052447;28;20032;-56
2023/02/10 08:20:12;;;;;;;9.07;5.90;;;19.70;31.60;;;;;;5047344;28;20028;-58
2023/02/10 08:22:38;;;;;;;8.65;5.60;;;19.80;31.50;;;;;;5059277;28;20025;-56
2023/02/10 08:25:05;;;;;;;8.38;6.03;;;19.90;31.60;;;;;;5055556;28;20399;-57
2023/02/10 08:27:31;;;;;;;9.18;6.30;;;20.00;31.50;;;;;;5036281;28;20025;-55
2023/02/10 08:29:56;;;;;;;11.82;6.60;;;20.00;31.40;;;;;;5052254;28;20075;-55
2023/02/10 08:32:23;;;;;;;7.03;5.43;;;20.10;32.00;;;;;;5061963;28;20032;-57
2023/02/10 08:34:49;;;;;;;7.63;6.13;;;20.20;31.30;;;;;;5059281;28;20028;-56
2023/02/10 08:37:17;;;;;;;8.38;6.07;;;20.20;31.10;;;;;;5059179;28;20043;-57
2023/02/10 08:39:43;;;;;;;9.98;6.20;;;20.20;31.10;;;;;;5062896;28;20082;-59
2023/02/10 08:42:09;;;;;;;6.60;5.47;;;20.30;31.10;;;;;;5061129;28;20067;-56
2023/02/10 08:44:35;;;;;;;9.77;6.30;;;20.40;31.10;;;;;;5058663;28;20035;-58
2023/02/10 08:47:01;;;;;;;8.20;5.93;;;20.40;31.00;;;;;;5036794;28;20115;-58
2023/02/10 08:49:28;;;;;;;7.45;5.82;;;20.50;31.00;;;;;;5064730;28;20048;-57
2023/02/10 08:51:55;;;;;;;8.57;5.85;;;20.50;30.90;;;;;;5057512;28;20024;-58
2023/02/10 08:54:21;;;;;;;8.32;5.90;;;20.60;30.90;;;;;;5057231;28;20039;-58
2023/02/10 08:56:52;;;;;;;8.77;6.10;;;20.60;30.80;;;;;;5050713;28;20025;-59
2023/02/10 08:59:18;;;;;;;9.80;6.28;;;20.70;30.80;;;;;;5062017;28;20024;-54
2023/02/10 09:01:44;;;;;;;9.23;5.75;;;20.70;30.70;;;;;;5038164;28;20505;-58
2023/02/10 09:04:10;;;;;;;9.65;5.57;;;20.70;30.60;;;;;;5061897;28;20032;-57
2023/02/10 09:06:40;;;;;;;9.30;5.50;;;20.70;30.60;;;;;;5062117;28;20456;-58
2023/02/10 09:09:09;;;;;;;8.18;5.80;;;20.80;30.70;;;;;;5057321;28;20452;-55
2023/02/10 09:11:36;;;;;;;6.50;5.28;;;20.80;30.60;;;;;;5061215;28;20104;-56
2023/02/10 09:14:02;;;;;;;7.78;5.43;;;20.90;30.60;;;;;;5062026;28;20037;-58
2023/02/10 09:16:27;;;;;;;7.50;5.75;;;20.90;30.50;;;;;;5064188;28;20492;-56
2023/02/10 09:18:53;;;;;;;7.93;6.13;;;20.90;30.40;;;;;;5058997;28;20090;-58
2023/02/10 09:21:19;;;;;;;6.70;5.25;;;20.90;30.30;;;;;;5065164;28;20058;-57
2023/02/10 09:23:46;;;;;;;7.07;5.22;;;21.00;30.30;;;;;;5064635;28;20033;-57
2023/02/10 09:26:12;;;;;;;7.70;5.53;;;21.00;30.20;;;;;;5062876;28;20049;-57
2023/02/10 09:28:38;;;;;;;9.65;5.90;;;21.00;30.80;;;;;;5061471;28;20033;-58
2023/02/10 09:31:06;;;;;;;8.50;6.30;;;21.00;30.10;;;;;;5044711;28;20455;-58
2023/02/10 09:33:32;;;;;;;8.23;6.10;;;21.00;30.10;;;;;;5062079;28;20020;-58
2023/02/10 09:35:58;;;;;;;9.52;5.90;;;21.10;30.10;;;;;;5063683;28;20121;-57
2023/02/10 09:38:25;;;;;;;8.10;6.00;;;21.10;30.00;;;;;;5064009;28;20165;-58
2023/02/10 09:41:15;;;;;;;8.38;5.93;;;21.10;30.00;;;;;;5062344;28;20114;-57
2023/02/10 09:44:14;;;;;;;7.50;5.63;;;21.10;30.00;;;;;;5042199;28;20124;-55
2023/02/10 09:46:58;;;;;;;8.40;5.65;;;21.10;30.00;;;;;;5062388;28;20528;-58
2023/02/10 09:49:33;;;;;;;8.33;6.07;;;21.10;30.00;;;;;;5062059;28;20029;-56
2023/02/10 09:52:17;;;;;;;8.57;6.13;;;21.10;30.00;;;;;;5062062;28;20025;-57
2023/02/10 09:54:44;;;;;;;8.38;6.28;;;21.10;30.00;;;;;;5061850;28;20519;-58
2023/02/10 09:57:32;;;;;;;9.73;6.47;;;21.10;30.00;;;;;;5062886;28;20020;-57
2023/02/10 09:59:59;;;;;;;8.65;6.40;;;21.20;30.00;;;;;;5059677;28;20029;-57
2023/02/10 10:02:39;;;;;;;9.23;6.90;;;21.20;30.00;;;;;;5065818;28;20025;-55
2023/02/10 10:05:21;;;;;;;8.63;6.18;;;21.20;30.00;;;;;;5064006;28;20095;-58
2023/02/10 10:07:50;;;;;;;9.15;6.55;;;21.20;30.00;;;;;;5066839;28;20024;-57
2023/02/10 10:10:40;;;;;;;9.07;6.53;;;21.20;30.60;;;;;;5065565;28;20039;-56
2023/02/10 10:13:27;;;;;;;8.82;6.50;;;21.20;30.00;;;;;;5063503;28;20460;-57
2023/02/10 10:16:19;;;;;;;8.93;6.55;;;21.20;30.00;;;;;;5063747;28;20135;-60
2023/02/10 10:19:11;;;;;;;9.23;6.70;;;21.20;30.20;;;;;;5064622;28;20029;-59
2023/02/10 10:22:07;;;;;;;10.65;6.30;;;21.20;30.30;;;;;;5066494;28;20056;-54
2023/02/10 10:24:40;;;;;;;9.43;6.82;;;21.20;30.50;;;;;;5061397;28;20055;-58
2023/02/10 10:27:18;;;;;;;12.82;6.43;;;21.20;30.50;;;;;;5066079;28;20348;-58
2023/02/10 10:29:54;;;;;;;10.10;6.35;;;21.20;30.50;;;;;;5064870;28;20029;-58
2023/02/10 10:32:56;;;;;;;10.63;7.10;;;21.20;30.50;;;;;;5066943;28;20025;-58
2023/02/10 10:35:28;;;;;;;10.20;6.65;;;21.20;30.60;;;;;;5054275;28;20413;-51
2023/02/10 10:37:55;;;;;;;8.80;6.28;;;21.20;30.60;;;;;;5062630;28;20032;-55
2023/02/10 10:40:30;;;;;;;9.93;6.68;;;21.20;30.60;;;;;;5064619;28;20448;-57
2023/02/10 10:42:59;;;;;;;10.05;7.40;;;21.20;30.60;;;;;;5065466;28;20028;-57
2023/02/10 10:45:42;;;;;;;12.27;6.90;;;21.20;30.60;;;;;;5068713;28;20111;-56
2023/02/10 10:48:26;;;;;;;10.63;6.95;;;21.20;30.60;;;;;;5067346;28;20039;-56
2023/02/10 10:51:01;;;;;;;9.52;6.28;;;21.20;30.60;;;;;;5066853;28;20514;-58
2023/02/10 10:53:31;;;;;;;10.10;6.35;;;21.20;30.60;;;;;;5064675;28;20028;-59
2023/02/10 10:55:58;;;;;;;10.70;6.72;;;21.20;30.70;;;;;;5064243;28;20052;-55
2023/02/10 10:58:36;;;;;;;10.23;7.38;;;21.20;30.80;;;;;;5062341;28;20040;-58
2023/02/10 11:01:05;;;;;;;10.48;7.32;;;21.20;30.80;;;;;;5065235;28;20032;-57
2023/02/10 11:03:31;;;;;;;9.60;7.15;;;21.20;30.90;;;;;;5063892;28;20416;-57
2023/02/10 11:06:07;;;;;;;10.77;7.25;;;21.20;30.90;;;;;;5068376;28;20043;-56
2023/02/10 11:08:59;;;;;;;9.57;7.15;;;21.20;30.90;;;;;;5059886;28;20025;-62
2023/02/10 11:11:41;;;;;;;11.05;7.18;;;21.20;31.00;;;;;;5064641;28;20093;-58
2023/02/10 11:14:24;;;;;;;11.07;7.53;;;21.20;31.20;;;;;;5064850;28;20037;-58
2023/02/10 11:17:00;;;;;;;10.32;7.88;;;21.20;31.20;;;;;;5062643;28;20028;-58
2023/02/10 11:19:31;;;;;;;11.88;7.80;;;21.20;31.30;;;;;;5064156;28;20025;-61
2023/02/10 11:21:57;;;;;;;9.85;7.15;;;21.20;31.30;;;;;;5067537;28;20028;-59
2023/02/10 11:24:33;;;;;;;11.55;7.07;;;21.20;31.50;;;;;;5065933;28;20106;-57
2023/02/10 11:27:15;;;;;;;9.85;7.32;;;21.20;31.50;;;;;;5046356;28;20036;-60
2023/02/10 11:29:53;;;;;;;14.57;7.55;;;21.20;31.60;;;;;;5032840;28;20411;-58
2023/02/10 11:32:25;;;;;;;14.77;7.05;;;21.20;31.60;;;;;;5065423;28;20059;-59
2023/02/10 11:34:55;;;;;;;11.13;7.40;;;21.20;31.70;;;;;;5061093;28;20021;-61
2023/02/10 11:37:36;;;;;;;13.20;7.97;;;21.20;31.80;;;;;;5063135;28;20025;-59
2023/02/10 11:40:15;;;;;;;11.00;7.82;;;21.20;31.80;;;;;;5061671;28;20028;-60
2023/02/10 11:42:46;;;;;;;14.13;7.15;;;21.20;31.70;;;;;;5062121;28;20055;-58
2023/02/10 11:45:20;;;;;;;10.40;7.30;;;21.20;31.70;;;;;;5043561;28;20049;-60
2023/02/10 11:47:46;;;;;;;10.82;7.57;;;21.20;31.60;;;;;;5064742;28;20033;-58
2023/02/10 11:50:38;;;;;;;13.90;6.97;;;21.20;31.70;;;;;;5057085;28;20040;-60
2023/02/10 11:53:04;;;;;;;10.75;7.03;;;21.20;31.70;;;;;;5054298;28;20076;-60
2023/02/10 11:55:47;;;;;;;11.00;7.00;;;21.20;31.70;;;;;;5053052;28;20033;-59
2023/02/10 12:01:24;;;;;;;12.35;7.63;;;21.20;31.60;;;;;;5057900;28;20047;-59
2023/02/10 12:04:12;;;;;;;9.35;6.90;;;21.20;31.50;;;;;;5057242;28;20116;-61
2023/02/10 12:06:59;;;;;;;11.07;7.50;;;21.20;31.50;;;;;;5055529;28;20043;-61
2023/02/10 12:09:54;;;;;;;10.35;6.72;;;21.20;31.50;;;;;;5057083;28;20033;-62
2023/02/10 12:12:45;;;;;;;9.68;7.15;;;21.20;31.50;;;;;;5057703;28;20111;-58
2023/02/10 12:15:36;;;;;;;12.05;6.82;;;21.20;31.50;;;;;;5062617;28;20095;-59
2023/02/10 12:18:24;;;;;;;11.10;6.95;;;21.20;31.50;;;;;;5020124;28;20063;-58
2023/02/10 12:21:20;;;;;;;9.32;6.63;;;21.20;31.50;;;;;;5059204;28;20439;-55
2023/02/10 12:24:05;;;;;;;14.50;8.23;;;21.20;31.50;;;;;;5059205;28;20440;-56
2023/02/10 12:26:50;;;;;;;15.48;9.38;;;21.20;32.00;;;;;;5065678;28;20036;-58
2023/02/10 12:29:31;;;;;;;14.48;8.25;;;21.20;32.30;;;;;;5058837;28;20052;-58
2023/02/10 12:32:36;;;;;;;12.25;8.70;;;21.20;32.40;;;;;;5055405;28;20040;-56
2023/02/10 12:35:22;;;;;;;13.93;9.60;;;21.20;32.50;;;;;;5059870;28;20036;-57
2023/02/10 12:38:20;;;;;;;14.35;10.05;;;21.20;32.70;;;;;;5061085;28;20564;-58
2023/02/10 12:40:55;;;;;;;17.30;11.23;;;21.20;32.80;;;;;;5059915;28;20024;-56
2023/02/10 12:43:42;;;;;;;17.42;10.75;;;21.20;32.90;;;;;;5056732;28;20090;-58
2023/02/10 12:46:23;;;;;;;15.70;11.60;;;21.20;33.00;;;;;;5058515;28;20452;-57
2023/02/10 12:49:17;;;;;;;15.32;10.80;;;21.20;33.00;;;;;;5060601;28;20037;-54
2023/02/10 12:52:01;;;;;;;16.98;11.10;;;21.20;32.80;;;;;;5055456;28;20025;-57
2023/02/10 12:54:36;;;;;;;16.15;11.20;;;21.20;32.70;;;;;;5061867;28;20595;-55
2023/02/10 12:57:19;;;;;;;15.60;10.32;;;21.20;32.50;;;;;;5063512;28;20485;-57
2023/02/10 13:00:12;;;;;;;17.00;10.50;;;21.20;32.30;;;;;;5064357;28;20036;-56
2023/02/10 13:02:44;;;;;;;16.95;11.52;;;21.20;32.20;;;;;;5062989;28;20029;-53
2023/02/10 13:05:23;;;;;;;19.30;12.88;;;21.20;32.20;;;;;;5063814;28;20036;-58
2023/02/10 13:08:02;;;;;;;21.27;13.52;;;21.20;32.50;;;;;;5064161;28;20040;-58
2023/02/10 13:10:46;;;;;;;20.35;13.02;;;21.20;32.70;;;;;;5063762;28;20159;-56